createdAt,value
2023-04-17T00:01:05.206Z,96646.97
2023-04-17T00:03:31.751Z,96645.56
2023-04-17T00:05:58.242Z,96648.78
2023-04-17T00:08:24.639Z,96646.00
2023-04-17T00:11:00.143Z,96644.34
2023-04-17T00:13:33.167Z,96643.75
2023-04-17T00:15:59.518Z,96639.03
2023-04-17T00:18:25.819Z,96637.84
2023-04-17T00:20:52.118Z,96637.41
2023-04-17T00:23:18.440Z,96631.91
2023-04-17T00:25:44.730Z,96629.91
2023-04-17T00:28:11.012Z,96635.91
2023-04-17T00:30:37.390Z,96630.97
2023-04-17T00:33:03.709Z,96629.38
2023-04-17T00:35:30.035Z,96631.72
2023-04-17T00:37:56.351Z,96615.81
2023-04-17T00:40:22.647Z,96623.81
2023-04-17T00:42:48.932Z,96626.31
2023-04-17T00:45:15.252Z,96615.50
2023-04-17T00:47:41.581Z,96617.69
2023-04-17T00:50:07.897Z,96613.69
2023-04-17T00:52:34.205Z,96615.69
2023-04-17T00:55:00.692Z,96612.84
2023-04-17T00:57:27.065Z,96616.09
2023-04-17T00:59:53.375Z,96604.13
2023-04-17T01:02:19.758Z,96607.41
2023-04-17T01:04:46.102Z,96611.41
2023-04-17T01:07:12.431Z,96599.16
2023-04-17T01:09:38.715Z,96606.22
2023-04-17T01:12:05.006Z,96600.00
2023-04-17T01:14:31.367Z,96600.75
2023-04-17T01:16:57.713Z,96597.53
2023-04-17T01:19:24.031Z,96598.06
2023-04-17T01:21:50.354Z,96593.16
2023-04-17T01:24:16.653Z,96594.06
2023-04-17T01:26:42.963Z,96586.94
2023-04-17T01:29:09.354Z,96585.78
2023-04-17T01:31:35.674Z,96588.19
2023-04-17T01:34:01.990Z,96585.84
2023-04-17T01:36:28.338Z,96588.16
2023-04-17T01:38:54.626Z,96584.97
2023-04-17T01:41:20.937Z,96580.50
2023-04-17T01:43:47.283Z,96582.59
2023-04-17T01:46:13.609Z,96590.09
2023-04-17T01:48:40.012Z,96585.06
2023-04-17T01:51:06.349Z,96582.25
2023-04-17T01:53:32.648Z,96585.47
2023-04-17T01:55:58.945Z,96578.31
2023-04-17T01:58:25.374Z,96572.84
2023-04-17T02:00:51.672Z,96574.38
2023-04-17T02:03:18.183Z,96577.50
2023-04-17T02:05:44.593Z,96574.41
2023-04-17T02:08:10.962Z,96569.19
2023-04-17T02:10:37.253Z,96571.94
2023-04-17T02:13:03.574Z,96564.06
2023-04-17T02:15:29.884Z,96570.66
2023-04-17T02:17:56.196Z,96567.16
2023-04-17T02:20:22.562Z,96567.94
2023-04-17T02:22:48.868Z,96575.06
2023-04-17T02:25:15.155Z,96567.91
2023-04-17T02:27:41.468Z,96572.66
2023-04-17T02:30:07.771Z,96568.19
2023-04-17T02:32:34.097Z,96558.16
2023-04-17T02:35:00.448Z,96566.63
2023-04-17T02:37:26.729Z,96567.47
2023-04-17T02:39:53.028Z,96567.94
2023-04-17T02:42:19.354Z,96563.22
2023-04-17T02:44:45.658Z,96567.59
2023-04-17T02:47:11.957Z,96568.09
2023-04-17T02:49:38.272Z,96564.69
2023-04-17T02:52:04.580Z,96566.84
2023-04-17T02:54:30.887Z,96559.50
2023-04-17T02:56:57.193Z,96559.59
2023-04-17T02:59:23.488Z,96561.91
2023-04-17T03:01:49.938Z,96563.63
2023-04-17T03:04:16.351Z,96558.81
2023-04-17T03:06:42.657Z,96554.44
2023-04-17T03:09:08.973Z,96550.03
2023-04-17T03:11:35.295Z,96552.03
2023-04-17T03:14:01.702Z,96545.78
2023-04-17T03:16:28.063Z,96547.78
2023-04-17T03:18:54.548Z,96544.59
2023-04-17T03:21:20.879Z,96546.56
2023-04-17T03:23:47.188Z,96542.59
2023-04-17T03:26:13.554Z,96539.88
2023-04-17T03:28:39.874Z,96540.22
2023-04-17T03:31:06.197Z,96539.50
2023-04-17T03:33:32.510Z,96536.72
2023-04-17T03:35:58.820Z,96534.38
2023-04-17T03:38:25.180Z,96538.72
2023-04-17T03:40:51.505Z,96527.94
2023-04-17T03:43:17.830Z,96534.31
2023-04-17T03:45:44.146Z,96532.81
2023-04-17T03:48:10.475Z,96532.00
2023-04-17T03:50:36.778Z,96531.63
2023-04-17T03:53:03.095Z,96534.78
2023-04-17T03:55:29.409Z,96539.97
2023-04-17T03:57:55.713Z,96542.41
2023-04-17T04:00:22.010Z,96538.41
2023-04-17T04:02:48.433Z,96533.66
2023-04-17T04:05:14.904Z,96532.44
2023-04-17T04:07:41.282Z,96522.94
2023-04-17T04:10:07.625Z,96524.56
2023-04-17T04:12:33.930Z,96523.75
2023-04-17T04:15:00.255Z,96525.69
2023-04-17T04:17:26.593Z,96532.44
2023-04-17T04:19:52.923Z,96525.31
2023-04-17T04:22:19.570Z,96531.66
2023-04-17T04:24:45.897Z,96536.72
2023-04-17T04:27:12.202Z,96533.66
2023-04-17T04:29:38.526Z,96533.63
2023-04-17T04:32:04.892Z,96534.44
2023-04-17T04:34:31.201Z,96528.94
2023-04-17T04:36:57.504Z,96522.22
2023-04-17T04:39:23.832Z,96530.56
2023-04-17T04:41:50.427Z,96540.41
2023-04-17T04:44:17.017Z,96540.44
2023-04-17T04:46:43.413Z,96540.41
2023-04-17T04:49:09.886Z,96539.91
2023-04-17T04:51:36.409Z,96541.13
2023-04-17T04:54:02.739Z,96542.66
2023-04-17T04:56:30.460Z,96539.44
2023-04-17T04:58:58.696Z,96534.78
2023-04-17T05:01:25.119Z,96538.72
2023-04-17T05:03:51.583Z,96535.97
2023-04-17T05:06:17.994Z,96538.38
2023-04-17T05:08:44.394Z,96538.34
2023-04-17T05:11:10.698Z,96536.81
2023-04-17T05:13:37.016Z,96541.97
2023-04-17T05:16:03.401Z,96533.69
2023-04-17T05:18:29.740Z,96540.41
2023-04-17T05:20:56.041Z,96544.75
2023-04-17T05:23:22.372Z,96545.88
2023-04-17T05:25:49.791Z,96544.34
2023-04-17T05:28:17.022Z,96542.75
2023-04-17T05:30:43.598Z,96545.50
2023-04-17T05:33:09.969Z,96550.28
2023-04-17T05:35:36.300Z,96551.88
2023-04-17T05:38:02.671Z,96549.84
2023-04-17T05:40:28.984Z,96558.94
2023-04-17T05:42:55.291Z,96551.88
2023-04-17T05:45:24.142Z,96551.03
2023-04-17T05:47:51.824Z,96547.34
2023-04-17T05:50:18.165Z,96562.06
2023-04-17T05:52:44.484Z,96552.06
2023-04-17T05:55:10.779Z,96558.06
2023-04-17T05:57:37.071Z,96551.28
2023-04-17T06:00:03.400Z,96550.88
2023-04-17T06:02:29.844Z,96548.88
2023-04-17T06:04:56.310Z,96556.41
2023-04-17T06:07:22.855Z,96553.31
2023-04-17T06:09:49.173Z,96550.44
2023-04-17T06:12:15.520Z,96552.81
2023-04-17T06:14:41.919Z,96552.75
2023-04-17T06:17:08.303Z,96552.44
2023-04-17T06:19:34.671Z,96548.38
2023-04-17T06:22:00.989Z,96557.84
2023-04-17T06:24:27.297Z,96558.19
2023-04-17T06:26:53.593Z,96556.16
2023-04-17T06:29:19.910Z,96549.50
2023-04-17T06:31:46.234Z,96565.03
2023-04-17T06:34:12.555Z,96556.41
2023-04-17T06:36:38.876Z,96563.13
2023-04-17T06:39:05.187Z,96553.19
2023-04-17T06:41:31.490Z,96549.41
2023-04-17T06:43:57.873Z,96556.94
2023-04-17T06:46:24.217Z,96551.44
2023-04-17T06:48:50.749Z,96544.56
2023-04-17T06:51:17.073Z,96548.47
2023-04-17T06:53:43.366Z,96554.50
2023-04-17T06:56:09.672Z,96548.69
2023-04-17T06:58:35.987Z,96551.75
2023-04-17T07:01:02.285Z,96549.75
2023-04-17T07:03:28.734Z,96546.13
2023-04-17T07:05:55.202Z,96548.66
2023-04-17T07:08:21.570Z,96548.31
2023-04-17T07:10:47.873Z,96544.53
2023-04-17T07:13:14.200Z,96552.53
2023-04-17T07:15:40.655Z,96548.72
2023-04-17T07:18:07.088Z,96549.19
2023-04-17T07:20:33.478Z,96562.28
2023-04-17T07:22:59.780Z,96548.72
2023-04-17T07:25:26.086Z,96552.13
2023-04-17T07:27:52.412Z,96550.91
2023-04-17T07:30:18.715Z,96549.69
2023-04-17T07:32:45.045Z,96552.81
2023-04-17T07:35:11.393Z,96551.69
2023-04-17T07:37:37.689Z,96550.94
2023-04-17T07:40:03.980Z,96557.28
2023-04-17T07:42:30.293Z,96556.94
2023-04-17T07:44:56.622Z,96564.06
2023-04-17T07:47:23.035Z,96561.75
2023-04-17T07:49:49.422Z,96559.28
2023-04-17T07:52:15.723Z,96567.13
2023-04-17T07:54:42.033Z,96565.19
2023-04-17T07:57:08.381Z,96560.75
2023-04-17T07:59:34.696Z,96556.88
2023-04-17T08:02:01.066Z,96555.09
2023-04-17T08:04:27.577Z,96561.84
2023-04-17T08:06:54.004Z,96557.97
2023-04-17T08:09:20.327Z,96552.16
2023-04-17T08:11:56.138Z,96552.31
2023-04-17T08:14:24.102Z,96557.06
2023-04-17T08:16:50.542Z,96554.78
2023-04-17T08:19:16.919Z,96565.84
2023-04-17T08:21:43.250Z,96564.78
2023-04-17T08:24:09.582Z,96568.03
2023-04-17T08:26:36.046Z,96570.28
2023-04-17T08:29:02.359Z,96554.19
2023-04-17T08:31:28.723Z,96558.66
2023-04-17T08:34:06.228Z,96555.22
2023-04-17T08:36:39.785Z,96562.50
2023-04-17T08:39:06.099Z,96561.00
2023-04-17T08:41:32.412Z,96554.88
2023-04-17T08:43:58.733Z,96561.91
2023-04-17T08:46:25.078Z,96564.22
2023-04-17T08:48:52.301Z,96559.50
2023-04-17T08:51:18.710Z,96558.22
2023-04-17T08:53:45.023Z,96563.00
2023-04-17T08:56:11.343Z,96559.72
2023-04-17T08:58:37.658Z,96551.22
2023-04-17T09:01:03.979Z,96558.06
2023-04-17T09:03:30.382Z,96558.06
2023-04-17T09:05:56.773Z,96557.34
2023-04-17T09:08:23.164Z,96555.03
2023-04-17T09:10:49.467Z,96552.06
2023-04-17T09:13:15.830Z,96557.03
2023-04-17T09:15:42.135Z,96555.09
2023-04-17T09:18:08.469Z,96558.78
2023-04-17T09:20:34.797Z,96554.00
2023-04-17T09:23:01.096Z,96551.28
2023-04-17T09:25:27.406Z,96559.97
2023-04-17T09:27:53.728Z,96547.78
2023-04-17T09:30:20.052Z,96547.09
2023-04-17T09:32:46.494Z,96553.75
2023-04-17T09:35:12.876Z,96542.59
2023-04-17T09:37:39.182Z,96551.06
2023-04-17T09:40:05.468Z,96550.38
2023-04-17T09:42:31.778Z,96531.78
2023-04-17T09:44:58.072Z,96532.75
2023-04-17T09:47:24.372Z,96539.44
2023-04-17T09:49:50.740Z,96531.53
2023-04-17T09:52:17.040Z,96533.75
2023-04-17T09:54:43.323Z,96539.72
2023-04-17T09:57:10.117Z,96535.28
2023-04-17T09:59:36.432Z,96535.94
2023-04-17T10:02:02.996Z,96541.09
2023-04-17T10:04:29.452Z,96533.19
2023-04-17T10:06:55.770Z,96531.81
2023-04-17T10:09:22.070Z,96524.53
2023-04-17T10:11:48.402Z,96530.88
2023-04-17T10:14:15.003Z,96525.66
2023-04-17T10:16:41.482Z,96520.78
2023-04-17T10:19:07.869Z,96528.91
2023-04-17T10:21:34.646Z,96519.59
2023-04-17T10:24:01.505Z,96515.09
2023-04-17T10:26:27.909Z,96527.19
2023-04-17T10:28:54.376Z,96525.16
2023-04-17T10:31:20.853Z,96532.81
2023-04-17T10:33:47.223Z,96531.22
2023-04-17T10:36:13.523Z,96518.31
2023-04-17T10:38:39.811Z,96519.66
2023-04-17T10:41:06.153Z,96526.81
2023-04-17T10:43:32.450Z,96520.34
2023-04-17T10:45:58.800Z,96510.06
2023-04-17T10:48:25.150Z,96513.78
2023-04-17T10:50:51.471Z,96520.44
2023-04-17T10:53:17.774Z,96518.78
2023-04-17T10:55:44.099Z,96522.34
2023-04-17T10:58:10.408Z,96518.34
2023-04-17T11:00:36.723Z,96517.91
2023-04-17T11:03:03.189Z,96526.00
2023-04-17T11:05:29.550Z,96521.59
2023-04-17T11:07:55.868Z,96513.63
2023-04-17T11:10:22.219Z,96517.84
2023-04-17T11:12:48.537Z,96525.44
2023-04-17T11:15:14.830Z,96524.81
2023-04-17T11:17:41.167Z,96522.34
2023-04-17T11:20:07.498Z,96516.97
2023-04-17T11:22:33.824Z,96514.31
2023-04-17T11:25:00.187Z,96512.69
2023-04-17T11:27:26.510Z,96510.75
2023-04-17T11:29:52.869Z,96519.53
2023-04-17T11:32:19.284Z,96521.59
2023-04-17T11:34:45.638Z,96515.38
2023-04-17T11:37:11.951Z,96519.78
2023-04-17T11:39:38.397Z,96523.41
2023-04-17T11:42:04.696Z,96519.34
2023-04-17T11:44:31.014Z,96514.31
2023-04-17T11:46:57.330Z,96520.63
2023-04-17T11:49:23.617Z,96519.78
2023-04-17T11:51:50.018Z,96509.69
2023-04-17T11:54:16.358Z,96520.66
2023-04-17T11:56:42.648Z,96518.56
2023-04-17T11:59:08.956Z,96518.88
2023-04-17T12:01:35.273Z,96512.78
2023-04-17T12:04:01.703Z,96519.69
2023-04-17T12:06:28.125Z,96514.31
2023-04-17T12:08:54.503Z,96513.81
2023-04-17T12:11:20.813Z,96510.94
2023-04-17T12:13:47.122Z,96511.38
2023-04-17T12:16:13.471Z,96512.84
2023-04-17T12:18:39.858Z,96506.84
2023-04-17T12:21:06.158Z,96503.97
2023-04-17T12:23:32.476Z,96505.50
2023-04-17T12:25:58.782Z,96510.13
2023-04-17T12:28:25.152Z,96507.16
2023-04-17T12:30:51.483Z,96513.09
2023-04-17T12:33:17.820Z,96509.81
2023-04-17T12:35:44.185Z,96508.19
2023-04-17T12:38:10.526Z,96499.47
2023-04-17T12:40:36.859Z,96508.63
2023-04-17T12:43:03.154Z,96494.63
2023-04-17T12:45:29.494Z,96496.84
2023-04-17T12:47:55.860Z,96490.63
2023-04-17T12:50:22.191Z,96490.34
2023-04-17T12:52:48.526Z,96489.44
2023-04-17T12:55:14.822Z,96481.34
2023-04-17T12:57:41.124Z,96482.53
2023-04-17T13:00:07.431Z,96478.69
2023-04-17T13:02:34.057Z,96478.59
2023-04-17T13:05:00.558Z,96473.97
2023-04-17T13:07:26.857Z,96480.41
2023-04-17T13:09:53.150Z,96468.63
2023-04-17T13:12:19.503Z,96472.53
2023-04-17T13:14:45.863Z,96468.25
2023-04-17T13:17:12.188Z,96464.31
2023-04-17T13:19:38.524Z,96461.69
2023-04-17T13:22:04.831Z,96458.00
2023-04-17T13:24:31.126Z,96451.59
2023-04-17T13:26:57.421Z,96448.34
2023-04-17T13:29:23.737Z,96450.00
2023-04-17T13:31:50.055Z,96442.00
2023-04-17T13:34:16.357Z,96441.91
2023-04-17T13:36:42.760Z,96439.16
2023-04-17T13:39:09.058Z,96436.66
2023-04-17T13:41:35.364Z,96432.91
2023-04-17T13:44:01.669Z,96430.06
2023-04-17T13:46:28.001Z,96431.06
2023-04-17T13:48:54.354Z,96432.00
2023-04-17T13:51:20.683Z,96430.66
2023-04-17T13:53:46.993Z,96426.81
2023-04-17T13:56:13.303Z,96424.53
2023-04-17T13:58:39.632Z,96423.59
2023-04-17T14:01:05.936Z,96427.78
2023-04-17T14:03:32.444Z,96410.78
2023-04-17T14:05:58.862Z,96419.50
2023-04-17T14:08:25.241Z,96412.00
2023-04-17T14:10:51.542Z,96406.69
2023-04-17T14:13:17.859Z,96406.78
2023-04-17T14:15:44.193Z,96404.84
2023-04-17T14:18:10.693Z,96407.69
2023-04-17T14:20:37.196Z,96401.91
2023-04-17T14:23:03.508Z,96402.00
2023-04-17T14:25:29.795Z,96398.53
2023-04-17T14:27:56.107Z,96396.94
2023-04-17T14:30:22.426Z,96398.56
2023-04-17T14:32:48.729Z,96388.19
2023-04-17T14:35:15.070Z,96393.59
2023-04-17T14:37:41.377Z,96388.00
2023-04-17T14:40:07.734Z,96392.81
2023-04-17T14:42:40.770Z,96389.78
2023-04-17T14:45:17.352Z,96387.41
2023-04-17T14:47:43.675Z,96376.34
2023-04-17T14:50:10.002Z,96380.00
2023-04-17T14:52:36.312Z,96390.47
2023-04-17T14:55:02.629Z,96377.13
2023-04-17T14:57:28.934Z,96387.28
2023-04-17T14:59:55.234Z,96376.91
2023-04-17T15:02:21.662Z,96378.25
2023-04-17T15:04:48.039Z,96395.00
2023-04-17T15:07:14.334Z,96373.66
2023-04-17T15:09:40.659Z,96370.19
2023-04-17T15:12:06.968Z,96370.66
2023-04-17T15:14:33.273Z,96365.22
2023-04-17T15:16:59.639Z,96375.00
2023-04-17T15:19:25.947Z,96363.03
2023-04-17T15:21:52.248Z,96374.38
2023-04-17T15:24:18.591Z,96364.66
2023-04-17T15:26:45.237Z,96365.00
2023-04-17T15:29:11.964Z,96368.22
2023-04-17T15:31:38.488Z,96357.63
2023-04-17T15:34:04.841Z,96357.03
2023-04-17T15:36:31.151Z,96357.69
2023-04-17T15:38:57.474Z,96361.00
2023-04-17T15:41:23.788Z,96351.94
2023-04-17T15:43:50.085Z,96355.06
2023-04-17T15:46:16.420Z,96354.38
2023-04-17T15:48:42.748Z,96348.44
2023-04-17T15:51:09.070Z,96349.38
2023-04-17T15:53:35.397Z,96352.78
2023-04-17T15:56:01.699Z,96345.13
2023-04-17T15:58:27.995Z,96343.34
2023-04-17T16:00:54.313Z,96345.91
2023-04-17T16:03:20.728Z,96348.13
2023-04-17T16:05:47.074Z,96346.97
2023-04-17T16:08:13.409Z,96345.22
2023-04-17T16:10:39.733Z,96343.19
2023-04-17T16:13:06.052Z,96346.63
2023-04-17T16:15:32.435Z,96338.34
2023-04-17T16:17:58.816Z,96341.75
2023-04-17T16:20:25.162Z,96331.25
2023-04-17T16:22:51.491Z,96333.44
2023-04-17T16:25:19.045Z,96321.50
2023-04-17T16:27:47.015Z,96323.06
2023-04-17T16:30:13.383Z,96320.47
2023-04-17T16:32:39.706Z,96321.84
2023-04-17T16:35:06.012Z,96325.31
2023-04-17T16:37:32.332Z,96323.38
2023-04-17T16:39:58.634Z,96326.25
2023-04-17T16:42:24.933Z,96323.97
2023-04-17T16:44:51.252Z,96320.06
2023-04-17T16:47:17.658Z,96327.22
2023-04-17T16:49:44.049Z,96326.59
2023-04-17T16:52:10.395Z,96326.09
2023-04-17T16:54:36.709Z,96322.88
2023-04-17T16:57:03.042Z,96326.09
2023-04-17T16:59:29.376Z,96326.75
2023-04-17T17:01:55.759Z,96318.25
2023-04-17T17:04:22.164Z,96345.50
2023-04-17T17:06:48.540Z,96324.91
2023-04-17T17:09:15.016Z,96337.81
2023-04-17T17:11:41.480Z,96338.09
2023-04-17T17:14:07.831Z,96327.44
2023-04-17T17:16:34.172Z,96330.72
2023-04-17T17:19:00.542Z,96329.69
2023-04-17T17:21:26.865Z,96330.72
2023-04-17T17:23:53.169Z,96325.38
2023-04-17T17:26:19.471Z,96326.13
2023-04-17T17:28:45.783Z,96332.59
2023-04-17T17:31:12.082Z,96328.75
2023-04-17T17:33:38.396Z,96327.97
2023-04-17T17:36:04.773Z,96327.69
2023-04-17T17:38:31.070Z,96336.78
2023-04-17T17:40:57.392Z,96340.25
2023-04-17T17:43:23.772Z,96346.44
2023-04-17T17:45:50.124Z,96345.84
2023-04-17T17:48:16.427Z,96345.31
2023-04-17T17:50:42.749Z,96348.53
2023-04-17T17:53:09.050Z,96355.22
2023-04-17T17:55:35.356Z,96352.59
2023-04-17T17:58:01.706Z,96351.41
2023-04-17T18:00:28.063Z,96353.97
2023-04-17T18:02:54.469Z,96356.25
2023-04-17T18:05:20.933Z,96352.69
2023-04-17T18:07:47.244Z,96347.63
2023-04-17T18:10:13.544Z,96361.56
2023-04-17T18:12:39.871Z,96359.53
2023-04-17T18:15:06.164Z,96355.00
2023-04-17T18:17:32.493Z,96355.50
2023-04-17T18:19:58.839Z,96366.16
2023-04-17T18:22:25.144Z,96371.53
2023-04-17T18:24:51.439Z,96378.81
2023-04-17T18:27:17.840Z,96381.19
2023-04-17T18:29:44.174Z,96381.31
2023-04-17T18:32:10.492Z,96379.66
2023-04-17T18:34:36.805Z,96386.25
2023-04-17T18:37:03.106Z,96388.13
2023-04-17T18:39:29.405Z,96383.69
2023-04-17T18:41:55.762Z,96387.63
2023-04-17T18:44:22.064Z,96394.31
2023-04-17T18:46:48.487Z,96387.91
2023-04-17T18:49:14.836Z,96400.41
2023-04-17T18:51:41.133Z,96397.47
2023-04-17T18:54:07.424Z,96394.75
2023-04-17T18:56:33.740Z,96393.38
2023-04-17T18:59:00.043Z,96404.47
2023-04-17T19:01:26.341Z,96401.41
2023-04-17T19:03:52.665Z,96409.03
2023-04-17T19:06:18.967Z,96403.41
2023-04-17T19:08:45.257Z,96406.19
2023-04-17T19:11:11.566Z,96410.38
2023-04-17T19:13:37.872Z,96399.31
2023-04-17T19:16:04.211Z,96407.72
2023-04-17T19:18:30.547Z,96411.41
2023-04-17T19:20:56.847Z,96418.16
2023-04-17T19:23:23.137Z,96412.25
2023-04-17T19:25:49.464Z,96420.69
2023-04-17T19:28:15.763Z,96420.59
2023-04-17T19:30:42.056Z,96419.94
2023-04-17T19:33:08.397Z,96421.50
2023-04-17T19:35:34.723Z,96415.50
2023-04-17T19:38:01.014Z,96425.47
2023-04-17T19:40:27.331Z,96424.81
2023-04-17T19:42:53.633Z,96424.72
2023-04-17T19:45:19.927Z,96428.75
2023-04-17T19:47:46.387Z,96433.94
2023-04-17T19:50:12.706Z,96426.72
2023-04-17T19:52:39.018Z,96428.13
2023-04-17T19:55:05.335Z,96434.84
2023-04-17T19:57:31.631Z,96431.63
2023-04-17T19:59:57.926Z,96427.63
2023-04-17T20:02:24.361Z,96421.63
2023-04-17T20:04:50.706Z,96420.06
2023-04-17T20:07:17.026Z,96415.63
2023-04-17T20:09:43.349Z,96411.38
2023-04-17T20:12:09.658Z,96412.50
2023-04-17T20:14:35.975Z,96407.53
2023-04-17T20:17:02.400Z,96405.69
2023-04-17T20:19:28.794Z,96410.75
2023-04-17T20:21:55.102Z,96404.28
2023-04-17T20:24:21.425Z,96408.88
2023-04-17T20:26:47.728Z,96403.31
2023-04-17T20:29:14.368Z,96401.25
2023-04-17T20:31:41.034Z,96397.34
2023-04-17T20:34:07.365Z,96398.53
2023-04-17T20:36:33.673Z,96402.59
2023-04-17T20:38:59.982Z,96409.13
2023-04-17T20:41:26.278Z,96404.09
2023-04-17T20:43:52.587Z,96410.09
2023-04-17T20:46:18.929Z,96412.16
2023-04-17T20:48:45.257Z,96410.63
2023-04-17T20:51:11.564Z,96407.00
2023-04-17T20:53:37.918Z,96404.94
2023-04-17T20:56:04.215Z,96412.88
2023-04-17T20:58:30.525Z,96417.34
2023-04-17T21:01:01.257Z,96412.81
2023-04-17T21:03:28.365Z,96411.78
2023-04-17T21:05:54.731Z,96405.84
2023-04-17T21:08:21.047Z,96414.66
2023-04-17T21:10:47.364Z,96420.66
2023-04-17T21:13:13.668Z,96416.84
2023-04-17T21:15:39.998Z,96411.88
2023-04-17T21:18:06.329Z,96411.88
2023-04-17T21:20:32.662Z,96409.59
2023-04-17T21:22:58.961Z,96406.75
2023-04-17T21:25:25.259Z,96417.22
2023-04-17T21:27:51.633Z,96412.00
2023-04-17T21:30:17.949Z,96420.22
2023-04-17T21:32:44.266Z,96417.94
2023-04-17T21:35:10.608Z,96416.75
2023-04-17T21:37:36.930Z,96416.50
2023-04-17T21:40:03.260Z,96416.59
2023-04-17T21:42:29.541Z,96420.94
2023-04-17T21:44:55.861Z,96416.31
2023-04-17T21:47:22.246Z,96416.22
2023-04-17T21:49:48.550Z,96420.31
2023-04-17T21:52:14.878Z,96412.81
2023-04-17T21:54:41.180Z,96420.06
2023-04-17T21:57:07.481Z,96425.66
2023-04-17T21:59:33.830Z,96419.41
2023-04-17T22:02:00.173Z,96421.03
2023-04-17T22:04:26.598Z,96415.69
2023-04-17T22:06:52.947Z,96412.91
2023-04-17T22:09:19.263Z,96420.19
2023-04-17T22:11:45.555Z,96413.56
2023-04-17T22:14:11.986Z,96412.03
2023-04-17T22:16:38.531Z,96417.22
2023-04-17T22:19:04.871Z,96409.34
2023-04-17T22:21:31.180Z,96409.25
2023-04-17T22:23:57.474Z,96403.78
2023-04-17T22:26:23.779Z,96408.66
2023-04-17T22:28:50.092Z,96408.38
2023-04-17T22:31:16.410Z,96403.53
2023-04-17T22:33:42.714Z,96408.59
2023-04-17T22:36:09.031Z,96396.69
2023-04-17T22:38:35.342Z,96400.66
2023-04-17T22:41:01.679Z,96395.91
2023-04-17T22:43:27.992Z,96398.34
2023-04-17T22:45:54.342Z,96392.13
2023-04-17T22:48:22.139Z,96393.84
2023-04-17T22:50:49.563Z,96397.75
2023-04-17T22:53:15.865Z,96391.81
2023-04-17T22:55:42.172Z,96389.44
2023-04-17T22:58:08.512Z,96397.75
2023-04-17T23:00:34.803Z,96394.72
2023-04-17T23:03:01.202Z,96400.25
2023-04-17T23:05:27.620Z,96393.13
2023-04-17T23:07:53.918Z,96403.72
2023-04-17T23:10:20.224Z,96397.81
2023-04-17T23:12:46.544Z,96405.47
2023-04-17T23:15:12.856Z,96400.63
2023-04-17T23:17:39.224Z,96398.59
2023-04-17T23:20:05.562Z,96408.50
2023-04-17T23:22:31.897Z,96403.72
2023-04-17T23:24:58.245Z,96401.75
2023-04-17T23:27:24.567Z,96396.19
2023-04-17T23:29:50.921Z,96392.97
2023-04-17T23:32:17.219Z,96388.63
2023-04-17T23:34:43.561Z,96391.75
2023-04-17T23:37:09.863Z,96397.72
2023-04-17T23:39:36.167Z,96396.88
2023-04-17T23:42:02.488Z,96398.56
2023-04-17T23:44:28.793Z,96393.38
2023-04-17T23:46:55.128Z,96395.00
2023-04-17T23:49:21.478Z,96408.22
2023-04-17T23:51:47.773Z,96399.56
2023-04-17T23:54:14.224Z,96394.00
2023-04-17T23:56:40.623Z,96399.91
2023-04-17T23:59:06.926Z,96383.66
